sensor_id;sensor_type;location;lat;lon;timestamp;P1;durP1;ratioP1;P2;durP2;ratioP2
1336;SDS011;662;48.814;9.318;2024-03-25T00:01:32;2.23;;;1.93;;
1336;SDS011;662;48.814;9.318;2024-03-25T00:03:58;2.73;;;2.40;;
1336;SDS011;662;48.814;9.318;2024-03-25T00:06:23;2.70;;;2.17;;
1336;SDS011;662;48.814;9.318;2024-03-25T00:08:49;4.40;;;2.10;;
1336;SDS011;662;48.814;9.318;2024-03-25T00:11:15;3.23;;;2.20;;
1336;SDS011;662;48.814;9.318;2024-03-25T00:13:40;4.00;;;2.20;;
1336;SDS011;662;48.814;9.318;2024-03-25T00:16:06;4.57;;;2.80;;
1336;SDS011;662;48.814;9.318;2024-03-25T00:18:32;2.63;;;2.43;;
1336;SDS011;662;48.814;9.318;2024-03-25T00:20:58;3.70;;;2.40;;
1336;SDS011;662;48.814;9.318;2024-03-25T00:23:23;4.90;;;2.80;;
1336;SDS011;662;48.814;9.318;2024-03-25T00:25:49;3.87;;;2.33;;
1336;SDS011;662;48.814;9.318;2024-03-25T00:28:15;3.47;;;3.17;;
1336;SDS011;662;48.814;9.318;2024-03-25T00:30:41;2.47;;;2.20;;
1336;SDS011;662;48.814;9.318;2024-03-25T00:33:06;3.17;;;2.87;;
1336;SDS011;662;48.814;9.318;2024-03-25T00:35:35;2.20;;;2.00;;
1336;SDS011;662;48.814;9.318;2024-03-25T00:38:00;6.03;;;2.40;;
1336;SDS011;662;48.814;9.318;2024-03-25T00:40:26;6.60;;;2.27;;
1336;SDS011;662;48.814;9.318;2024-03-25T00:42:52;4.37;;;3.07;;
1336;SDS011;662;48.814;9.318;2024-03-25T00:45:18;3.20;;;2.90;;
1336;SDS011;662;48.814;9.318;2024-03-25T00:47:43;4.27;;;2.83;;
1336;SDS011;662;48.814;9.318;2024-03-25T00:50:09;4.40;;;3.07;;
1336;SDS011;662;48.814;9.318;2024-03-25T00:52:35;5.37;;;2.90;;
1336;SDS011;662;48.814;9.318;2024-03-25T00:55:01;2.67;;;2.47;;
1336;SDS011;662;48.814;9.318;2024-03-25T00:57:27;3.53;;;2.67;;
1336;SDS011;662;48.814;9.318;2024-03-25T00:59:54;6.37;;;3.13;;
1336;SDS011;662;48.814;9.318;2024-03-25T01:02:20;3.20;;;2.90;;
1336;SDS011;662;48.814;9.318;2024-03-25T01:04:46;3.30;;;2.93;;
1336;SDS011;662;48.814;9.318;2024-03-25T01:07:11;4.00;;;2.60;;
1336;SDS011;662;48.814;9.318;2024-03-25T01:09:37;4.50;;;3.17;;
1336;SDS011;662;48.814;9.318;2024-03-25T01:12:03;3.70;;;2.50;;
1336;SDS011;662;48.814;9.318;2024-03-25T01:14:29;3.60;;;2.70;;
1336;SDS011;662;48.814;9.318;2024-03-25T01:16:54;5.47;;;3.10;;
1336;SDS011;662;48.814;9.318;2024-03-25T01:19:21;5.47;;;2.70;;
1336;SDS011;662;48.814;9.318;2024-03-25T01:21:47;3.23;;;2.40;;
1336;SDS011;662;48.814;9.318;2024-03-25T01:24:12;8.00;;;2.77;;
1336;SDS011;662;48.814;9.318;2024-03-25T01:26:38;3.27;;;2.63;;
1336;SDS011;662;48.814;9.318;2024-03-25T01:29:04;7.57;;;2.80;;
1336;SDS011;662;48.814;9.318;2024-03-25T01:31:29;5.27;;;3.10;;
1336;SDS011;662;48.814;9.318;2024-03-25T01:33:55;3.00;;;2.70;;
1336;SDS011;662;48.814;9.318;2024-03-25T01:36:20;4.30;;;3.00;;
1336;SDS011;662;48.814;9.318;2024-03-25T01:38:46;7.40;;;2.67;;
1336;SDS011;662;48.814;9.318;2024-03-25T01:41:12;4.80;;;3.27;;
1336;SDS011;662;48.814;9.318;2024-03-25T01:43:40;4.80;;;2.90;;
1336;SDS011;662;48.814;9.318;2024-03-25T01:46:06;5.60;;;2.87;;
1336;SDS011;662;48.814;9.318;2024-03-25T01:48:32;3.33;;;2.80;;
1336;SDS011;662;48.814;9.318;2024-03-25T01:50:59;8.00;;;3.20;;
1336;SDS011;662;48.814;9.318;2024-03-25T01:53:26;4.57;;;2.70;;
1336;SDS011;662;48.814;9.318;2024-03-25T01:55:54;3.47;;;2.63;;
1336;SDS011;662;48.814;9.318;2024-03-25T01:58:21;4.70;;;3.80;;
1336;SDS011;662;48.814;9.318;2024-03-25T02:00:48;4.20;;;2.90;;
1336;SDS011;662;48.814;9.318;2024-03-25T02:03:15;6.47;;;3.33;;
1336;SDS011;662;48.814;9.318;2024-03-25T02:05:41;4.87;;;2.90;;
1336;SDS011;662;48.814;9.318;2024-03-25T02:08:07;6.10;;;3.07;;
1336;SDS011;662;48.814;9.318;2024-03-25T02:10:34;4.60;;;2.90;;
1336;SDS011;662;48.814;9.318;2024-03-25T02:13:02;6.30;;;3.00;;
1336;SDS011;662;48.814;9.318;2024-03-25T02:15:28;4.40;;;2.60;;
1336;SDS011;662;48.814;9.318;2024-03-25T02:17:54;4.97;;;3.03;;
1336;SDS011;662;48.814;9.318;2024-03-25T02:20:20;3.03;;;2.53;;
1336;SDS011;662;48.814;9.318;2024-03-25T02:22:46;3.80;;;2.80;;
1336;SDS011;662;48.814;9.318;2024-03-25T02:25:11;3.47;;;3.10;;
1336;SDS011;662;48.814;9.318;2024-03-25T02:27:41;5.70;;;3.00;;
1336;SDS011;662;48.814;9.318;2024-03-25T02:30:07;3.67;;;2.73;;
1336;SDS011;662;48.814;9.318;2024-03-25T02:32:37;4.33;;;3.30;;
1336;SDS011;662;48.814;9.318;2024-03-25T02:35:03;3.20;;;2.50;;
1336;SDS011;662;48.814;9.318;2024-03-25T02:37:33;5.03;;;2.73;;
1336;SDS011;662;48.814;9.318;2024-03-25T02:39:59;3.00;;;2.37;;
1336;SDS011;662;48.814;9.318;2024-03-25T02:42:26;3.33;;;2.90;;
1336;SDS011;662;48.814;9.318;2024-03-25T02:44:53;6.43;;;3.30;;
1336;SDS011;662;48.814;9.318;2024-03-25T02:47:20;3.63;;;2.70;;
1336;SDS011;662;48.814;9.318;2024-03-25T02:49:46;4.10;;;3.00;;
1336;SDS011;662;48.814;9.318;2024-03-25T02:52:11;6.33;;;3.50;;
1336;SDS011;662;48.814;9.318;2024-03-25T02:54:37;4.67;;;3.20;;
1336;SDS011;662;48.814;9.318;2024-03-25T02:57:04;4.97;;;3.90;;
1336;SDS011;662;48.814;9.318;2024-03-25T02:59:29;4.20;;;3.60;;
1336;SDS011;662;48.814;9.318;2024-03-25T03:01:55;5.43;;;2.83;;
1336;SDS011;662;48.814;9.318;2024-03-25T03:04:21;3.53;;;2.87;;
1336;SDS011;662;48.814;9.318;2024-03-25T03:06:46;3.90;;;2.80;;
1336;SDS011;662;48.814;9.318;2024-03-25T03:09:12;3.60;;;3.30;;
1336;SDS011;662;48.814;9.318;2024-03-25T03:11:37;3.10;;;2.60;;
1336;SDS011;662;48.814;9.318;2024-03-25T03:14:03;3.00;;;2.80;;
1336;SDS011;662;48.814;9.318;2024-03-25T03:16:29;3.70;;;3.00;;
1336;SDS011;662;48.814;9.318;2024-03-25T03:18:55;4.07;;;2.90;;
1336;SDS011;662;48.814;9.318;2024-03-25T03:21:21;4.07;;;2.87;;
1336;SDS011;662;48.814;9.318;2024-03-25T03:23:46;5.23;;;2.53;;
1336;SDS011;662;48.814;9.318;2024-03-25T03:26:12;3.17;;;2.87;;
1336;SDS011;662;48.814;9.318;2024-03-25T03:28:39;8.83;;;3.30;;
1336;SDS011;662;48.814;9.318;2024-03-25T03:31:05;4.50;;;2.83;;
1336;SDS011;662;48.814;9.318;2024-03-25T03:33:31;3.97;;;2.90;;
1336;SDS011;662;48.814;9.318;2024-03-25T03:35:56;3.73;;;3.10;;
1336;SDS011;662;48.814;9.318;2024-03-25T03:38:22;7.20;;;3.37;;
1336;SDS011;662;48.814;9.318;2024-03-25T03:41:00;3.40;;;2.90;;
1336;SDS011;662;48.814;9.318;2024-03-25T03:43:27;4.70;;;3.00;;
1336;SDS011;662;48.814;9.318;2024-03-25T03:45:52;5.73;;;3.90;;
1336;SDS011;662;48.814;9.318;2024-03-25T03:48:18;5.50;;;3.40;;
1336;SDS011;662;48.814;9.318;2024-03-25T03:50:46;5.13;;;3.37;;
1336;SDS011;662;48.814;9.318;2024-03-25T03:53:12;5.97;;;3.10;;
1336;SDS011;662;48.814;9.318;2024-03-25T03:55:38;3.33;;;3.03;;
1336;SDS011;662;48.814;9.318;2024-03-25T03:58:04;4.40;;;3.30;;
1336;SDS011;662;48.814;9.318;2024-03-25T04:00:32;7.90;;;3.93;;
1336;SDS011;662;48.814;9.318;2024-03-25T04:02:59;5.60;;;3.80;;
1336;SDS011;662;48.814;9.318;2024-03-25T04:05:28;3.90;;;3.40;;
1336;SDS011;662;48.814;9.318;2024-03-25T04:07:55;5.77;;;3.00;;
1336;SDS011;662;48.814;9.318;2024-03-25T04:10:21;4.97;;;3.23;;
1336;SDS011;662;48.814;9.318;2024-03-25T04:12:46;4.63;;;3.03;;
1336;SDS011;662;48.814;9.318;2024-03-25T04:15:12;3.60;;;3.30;;
1336;SDS011;662;48.814;9.318;2024-03-25T04:17:42;4.70;;;3.30;;
1336;SDS011;662;48.814;9.318;2024-03-25T04:20:11;5.40;;;3.73;;
1336;SDS011;662;48.814;9.318;2024-03-25T04:22:41;3.70;;;3.00;;
1336;SDS011;662;48.814;9.318;2024-03-25T04:25:08;7.23;;;3.60;;
1336;SDS011;662;48.814;9.318;2024-03-25T04:27:37;6.27;;;3.97;;
1336;SDS011;662;48.814;9.318;2024-03-25T04:30:03;5.00;;;4.10;;
1336;SDS011;662;48.814;9.318;2024-03-25T04:32:32;3.43;;;3.03;;
1336;SDS011;662;48.814;9.318;2024-03-25T04:34:57;3.77;;;3.00;;
1336;SDS011;662;48.814;9.318;2024-03-25T04:37:23;6.67;;;3.43;;
1336;SDS011;662;48.814;9.318;2024-03-25T04:39:49;7.10;;;4.20;;
1336;SDS011;662;48.814;9.318;2024-03-25T04:42:14;3.47;;;3.17;;
1336;SDS011;662;48.814;9.318;2024-03-25T04:44:40;3.50;;;3.20;;
1336;SDS011;662;48.814;9.318;2024-03-25T04:47:05;6.20;;;3.50;;
1336;SDS011;662;48.814;9.318;2024-03-25T04:49:31;5.20;;;3.13;;
1336;SDS011;662;48.814;9.318;2024-03-25T04:51:57;7.13;;;3.60;;
1336;SDS011;662;48.814;9.318;2024-03-25T04:54:22;4.57;;;4.03;;
1336;SDS011;662;48.814;9.318;2024-03-25T04:56:48;4.93;;;3.17;;
1336;SDS011;662;48.814;9.318;2024-03-25T04:59:14;3.83;;;3.40;;
1336;SDS011;662;48.814;9.318;2024-03-25T05:01:39;7.90;;;4.03;;
1336;SDS011;662;48.814;9.318;2024-03-25T05:04:05;4.73;;;3.70;;
1336;SDS011;662;48.814;9.318;2024-03-25T05:06:34;4.37;;;3.73;;
1336;SDS011;662;48.814;9.318;2024-03-25T05:09:00;5.10;;;3.10;;
1336;SDS011;662;48.814;9.318;2024-03-25T05:11:25;6.40;;;3.43;;
1336;SDS011;662;48.814;9.318;2024-03-25T05:13:51;6.30;;;3.80;;
1336;SDS011;662;48.814;9.318;2024-03-25T05:16:17;6.70;;;4.00;;
1336;SDS011;662;48.814;9.318;2024-03-25T05:18:42;4.30;;;3.60;;
1336;SDS011;662;48.814;9.318;2024-03-25T05:21:08;3.57;;;3.27;;
1336;SDS011;662;48.814;9.318;2024-03-25T05:23:33;5.30;;;3.23;;
1336;SDS011;662;48.814;9.318;2024-03-25T05:25:59;5.60;;;3.73;;
1336;SDS011;662;48.814;9.318;2024-03-25T05:28:25;6.27;;;3.80;;
1336;SDS011;662;48.814;9.318;2024-03-25T05:30:50;5.50;;;4.27;;
1336;SDS011;662;48.814;9.318;2024-03-25T05:33:16;4.27;;;3.87;;
1336;SDS011;662;48.814;9.318;2024-03-25T05:35:42;4.67;;;3.80;;
1336;SDS011;662;48.814;9.318;2024-03-25T05:38:07;5.13;;;3.40;;
1336;SDS011;662;48.814;9.318;2024-03-25T05:40:33;4.60;;;3.97;;
1336;SDS011;662;48.814;9.318;2024-03-25T05:42:59;3.73;;;3.37;;
1336;SDS011;662;48.814;9.318;2024-03-25T05:45:24;5.50;;;3.83;;
1336;SDS011;662;48.814;9.318;2024-03-25T05:47:50;4.23;;;3.77;;
1336;SDS011;662;48.814;9.318;2024-03-25T05:50:16;4.13;;;3.73;;
1336;SDS011;662;48.814;9.318;2024-03-25T05:52:42;4.80;;;3.47;;
1336;SDS011;662;48.814;9.318;2024-03-25T05:55:07;6.00;;;3.50;;
1336;SDS011;662;48.814;9.318;2024-03-25T05:57:35;5.20;;;4.13;;
1336;SDS011;662;48.814;9.318;2024-03-25T06:00:01;6.40;;;4.40;;
1336;SDS011;662;48.814;9.318;2024-03-25T06:02:28;5.70;;;4.20;;
1336;SDS011;662;48.814;9.318;2024-03-25T06:04:53;7.33;;;4.20;;
1336;SDS011;662;48.814;9.318;2024-03-25T06:07:21;11.83;;;3.93;;
1336;SDS011;662;48.814;9.318;2024-03-25T06:09:47;4.00;;;3.60;;
1336;SDS011;662;48.814;9.318;2024-03-25T06:12:13;4.43;;;3.80;;
1336;SDS011;662;48.814;9.318;2024-03-25T06:14:39;8.07;;;3.80;;
1336;SDS011;662;48.814;9.318;2024-03-25T06:17:04;4.13;;;3.50;;
1336;SDS011;662;48.814;9.318;2024-03-25T06:19:30;6.87;;;3.63;;
1336;SDS011;662;48.814;9.318;2024-03-25T06:21:56;8.33;;;5.27;;
1336;SDS011;662;48.814;9.318;2024-03-25T06:24:21;6.40;;;3.80;;
1336;SDS011;662;48.814;9.318;2024-03-25T06:26:47;5.50;;;3.50;;
1336;SDS011;662;48.814;9.318;2024-03-25T06:29:13;5.40;;;4.20;;
1336;SDS011;662;48.814;9.318;2024-03-25T06:31:38;3.63;;;3.30;;
1336;SDS011;662;48.814;9.318;2024-03-25T06:34:23;7.83;;;4.40;;
1336;SDS011;662;48.814;9.318;2024-03-25T06:36:48;4.97;;;4.07;;
1336;SDS011;662;48.814;9.318;2024-03-25T06:39:14;7.80;;;4.00;;
1336;SDS011;662;48.814;9.318;2024-03-25T06:41:40;6.37;;;3.90;;
1336;SDS011;662;48.814;9.318;2024-03-25T06:44:06;5.30;;;3.60;;
1336;SDS011;662;48.814;9.318;2024-03-25T06:46:32;6.33;;;4.23;;
1336;SDS011;662;48.814;9.318;2024-03-25T06:48:58;5.40;;;3.90;;
1336;SDS011;662;48.814;9.318;2024-03-25T06:51:24;4.93;;;4.07;;
1336;SDS011;662;48.814;9.318;2024-03-25T06:53:50;4.30;;;3.20;;
1336;SDS011;662;48.814;9.318;2024-03-25T06:56:15;10.33;;;5.60;;
1336;SDS011;662;48.814;9.318;2024-03-25T06:58:41;13.37;;;6.60;;
1336;SDS011;662;48.814;9.318;2024-03-25T07:01:08;10.63;;;6.53;;
1336;SDS011;662;48.814;9.318;2024-03-25T07:03:37;9.63;;;5.33;;
1336;SDS011;662;48.814;9.318;2024-03-25T07:06:03;12.63;;;5.07;;
1336;SDS011;662;48.814;9.318;2024-03-25T07:08:29;10.77;;;4.57;;
1336;SDS011;662;48.814;9.318;2024-03-25T07:10:58;5.40;;;4.00;;
1336;SDS011;662;48.814;9.318;2024-03-25T07:13:24;4.57;;;4.00;;
1336;SDS011;662;48.814;9.318;2024-03-25T07:15:50;5.43;;;3.73;;
1336;SDS011;662;48.814;9.318;2024-03-25T07:18:16;6.73;;;4.50;;
1336;SDS011;662;48.814;9.318;2024-03-25T07:20:42;10.60;;;4.13;;
1336;SDS011;662;48.814;9.318;2024-03-25T07:23:09;7.07;;;3.80;;
1336;SDS011;662;48.814;9.318;2024-03-25T07:25:35;6.40;;;4.50;;
1336;SDS011;662;48.814;9.318;2024-03-25T07:28:02;5.33;;;3.80;;
1336;SDS011;662;48.814;9.318;2024-03-25T07:30:28;5.37;;;4.27;;
1336;SDS011;662;48.814;9.318;2024-03-25T07:32:54;8.70;;;4.27;;
1336;SDS011;662;48.814;9.318;2024-03-25T07:35:20;6.10;;;3.67;;
1336;SDS011;662;48.814;9.318;2024-03-25T07:37:46;6.63;;;4.17;;
1336;SDS011;662;48.814;9.318;2024-03-25T07:40:12;7.23;;;3.67;;
1336;SDS011;662;48.814;9.318;2024-03-25T07:42:38;4.40;;;3.67;;
1336;SDS011;662;48.814;9.318;2024-03-25T07:45:06;7.00;;;4.00;;
1336;SDS011;662;48.814;9.318;2024-03-25T07:47:32;7.43;;;3.90;;
1336;SDS011;662;48.814;9.318;2024-03-25T07:49:58;5.90;;;4.23;;
1336;SDS011;662;48.814;9.318;2024-03-25T07:52:25;6.20;;;4.00;;
1336;SDS011;662;48.814;9.318;2024-03-25T07:54:51;11.33;;;4.43;;
1336;SDS011;662;48.814;9.318;2024-03-25T07:57:17;4.83;;;4.33;;
1336;SDS011;662;48.814;9.318;2024-03-25T07:59:42;5.00;;;3.73;;
1336;SDS011;662;48.814;9.318;2024-03-25T08:02:08;5.53;;;3.90;;
1336;SDS011;662;48.814;9.318;2024-03-25T08:04:34;5.20;;;3.20;;
1336;SDS011;662;48.814;9.318;2024-03-25T08:06:59;4.67;;;3.30;;
1336;SDS011;662;48.814;9.318;2024-03-25T08:09:25;4.90;;;3.30;;
1336;SDS011;662;48.814;9.318;2024-03-25T08:11:51;3.90;;;3.50;;
1336;SDS011;662;48.814;9.318;2024-03-25T08:14:16;5.90;;;4.10;;
1336;SDS011;662;48.814;9.318;2024-03-25T08:16:42;4.53;;;3.27;;
1336;SDS011;662;48.814;9.318;2024-03-25T08:19:08;5.90;;;3.50;;
1336;SDS011;662;48.814;9.318;2024-03-25T08:21:34;5.57;;;3.00;;
1336;SDS011;662;48.814;9.318;2024-03-25T08:24:02;5.30;;;2.53;;
1336;SDS011;662;48.814;9.318;2024-03-25T08:26:28;6.60;;;3.67;;
1336;SDS011;662;48.814;9.318;2024-03-25T08:28:54;4.40;;;2.80;;
1336;SDS011;662;48.814;9.318;2024-03-25T08:31:20;8.70;;;3.10;;
1336;SDS011;662;48.814;9.318;2024-03-25T08:33:45;7.40;;;3.00;;
1336;SDS011;662;48.814;9.318;2024-03-25T08:36:11;3.30;;;2.60;;
1336;SDS011;662;48.814;9.318;2024-03-25T08:38:37;4.53;;;3.03;;
1336;SDS011;662;48.814;9.318;2024-03-25T08:41:03;4.03;;;2.17;;
1336;SDS011;662;48.814;9.318;2024-03-25T08:43:29;4.33;;;2.60;;
1336;SDS011;662;48.814;9.318;2024-03-25T08:45:54;6.83;;;2.87;;
1336;SDS011;662;48.814;9.318;2024-03-25T08:48:20;8.50;;;3.10;;
1336;SDS011;662;48.814;9.318;2024-03-25T08:50:46;2.93;;;2.40;;
1336;SDS011;662;48.814;9.318;2024-03-25T08:53:11;4.57;;;3.03;;
1336;SDS011;662;48.814;9.318;2024-03-25T08:55:37;4.03;;;2.50;;
1336;SDS011;662;48.814;9.318;2024-03-25T08:58:03;5.30;;;3.17;;
1336;SDS011;662;48.814;9.318;2024-03-25T09:00:29;4.53;;;1.90;;
1336;SDS011;662;48.814;9.318;2024-03-25T09:02:54;2.90;;;1.73;;
1336;SDS011;662;48.814;9.318;2024-03-25T09:05:20;4.80;;;2.10;;
1336;SDS011;662;48.814;9.318;2024-03-25T09:07:48;4.13;;;1.70;;
1336;SDS011;662;48.814;9.318;2024-03-25T09:10:17;2.07;;;1.70;;
1336;SDS011;662;48.814;9.318;2024-03-25T09:13:02;3.27;;;1.87;;
1336;SDS011;662;48.814;9.318;2024-03-25T09:15:28;7.10;;;2.17;;
1336;SDS011;662;48.814;9.318;2024-03-25T09:17:54;4.97;;;2.30;;
1336;SDS011;662;48.814;9.318;2024-03-25T09:20:20;2.87;;;1.80;;
1336;SDS011;662;48.814;9.318;2024-03-25T09:22:46;3.77;;;1.93;;
1336;SDS011;662;48.814;9.318;2024-03-25T09:25:13;2.43;;;1.80;;
1336;SDS011;662;48.814;9.318;2024-03-25T09:27:40;4.60;;;1.90;;
1336;SDS011;662;48.814;9.318;2024-03-25T09:30:06;4.33;;;2.10;;
1336;SDS011;662;48.814;9.318;2024-03-25T09:32:34;3.77;;;2.00;;
1336;SDS011;662;48.814;9.318;2024-03-25T09:35:00;2.43;;;1.63;;
1336;SDS011;662;48.814;9.318;2024-03-25T09:37:26;2.60;;;1.90;;
1336;SDS011;662;48.814;9.318;2024-03-25T09:39:52;3.30;;;2.53;;
1336;SDS011;662;48.814;9.318;2024-03-25T09:42:41;2.77;;;1.53;;
1336;SDS011;662;48.814;9.318;2024-03-25T09:45:13;3.40;;;2.00;;
1336;SDS011;662;48.814;9.318;2024-03-25T09:47:43;7.60;;;1.97;;
1336;SDS011;662;48.814;9.318;2024-03-25T09:50:11;5.03;;;2.13;;
1336;SDS011;662;48.814;9.318;2024-03-25T09:52:46;5.67;;;1.97;;
1336;SDS011;662;48.814;9.318;2024-03-25T09:55:16;3.93;;;1.77;;
1336;SDS011;662;48.814;9.318;2024-03-25T09:57:42;2.20;;;1.80;;
1336;SDS011;662;48.814;9.318;2024-03-25T10:00:09;2.43;;;2.00;;
1336;SDS011;662;48.814;9.318;2024-03-25T10:02:36;2.83;;;2.10;;
1336;SDS011;662;48.814;9.318;2024-03-25T10:05:03;2.30;;;1.80;;
1336;SDS011;662;48.814;9.318;2024-03-25T10:07:33;3.23;;;1.93;;
1336;SDS011;662;48.814;9.318;2024-03-25T10:09:59;2.20;;;1.90;;
1336;SDS011;662;48.814;9.318;2024-03-25T10:12:30;3.00;;;1.93;;
1336;SDS011;662;48.814;9.318;2024-03-25T10:14:56;2.73;;;2.00;;
1336;SDS011;662;48.814;9.318;2024-03-25T10:17:22;3.97;;;2.43;;
1336;SDS011;662;48.814;9.318;2024-03-25T10:19:48;3.83;;;2.30;;
1336;SDS011;662;48.814;9.318;2024-03-25T10:22:14;4.40;;;1.87;;
1336;SDS011;662;48.814;9.318;2024-03-25T10:24:40;3.27;;;2.17;;
1336;SDS011;662;48.814;9.318;2024-03-25T10:27:09;3.43;;;1.60;;
1336;SDS011;662;48.814;9.318;2024-03-25T10:29:41;2.50;;;2.00;;
1336;SDS011;662;48.814;9.318;2024-03-25T10:32:07;4.37;;;2.43;;
1336;SDS011;662;48.814;9.318;2024-03-25T10:34:33;2.27;;;1.70;;
1336;SDS011;662;48.814;9.318;2024-03-25T10:36:58;3.93;;;2.03;;
1336;SDS011;662;48.814;9.318;2024-03-25T10:39:29;2.50;;;1.87;;
1336;SDS011;662;48.814;9.318;2024-03-25T10:41:57;3.60;;;2.00;;
1336;SDS011;662;48.814;9.318;2024-03-25T10:44:25;4.20;;;2.10;;
1336;SDS011;662;48.814;9.318;2024-03-25T10:47:00;3.53;;;2.03;;
1336;SDS011;662;48.814;9.318;2024-03-25T10:49:38;4.33;;;2.67;;
1336;SDS011;662;48.814;9.318;2024-03-25T10:52:22;2.37;;;2.10;;
1336;SDS011;662;48.814;9.318;2024-03-25T10:54:49;4.90;;;2.10;;
1336;SDS011;662;48.814;9.318;2024-03-25T10:57:16;3.23;;;2.00;;
1336;SDS011;662;48.814;9.318;2024-03-25T10:59:42;4.83;;;2.30;;
1336;SDS011;662;48.814;9.318;2024-03-25T11:02:09;2.93;;;2.13;;
1336;SDS011;662;48.814;9.318;2024-03-25T11:04:35;2.70;;;2.27;;
1336;SDS011;662;48.814;9.318;2024-03-25T11:07:08;6.27;;;2.97;;
1336;SDS011;662;48.814;9.318;2024-03-25T11:09:38;3.10;;;2.10;;
1336;SDS011;662;48.814;9.318;2024-03-25T11:12:04;2.83;;;2.50;;
1336;SDS011;662;48.814;9.318;2024-03-25T11:14:31;4.07;;;2.43;;
1336;SDS011;662;48.814;9.318;2024-03-25T11:17:00;2.83;;;2.07;;
1336;SDS011;662;48.814;9.318;2024-03-25T11:19:27;3.77;;;2.03;;
1336;SDS011;662;48.814;9.318;2024-03-25T11:21:54;2.90;;;1.97;;
1336;SDS011;662;48.814;9.318;2024-03-25T11:24:31;3.37;;;2.20;;
1336;SDS011;662;48.814;9.318;2024-03-25T11:26:56;6.83;;;2.90;;
1336;SDS011;662;48.814;9.318;2024-03-25T11:29:25;4.90;;;2.70;;
1336;SDS011;662;48.814;9.318;2024-03-25T11:31:51;2.90;;;2.03;;
1336;SDS011;662;48.814;9.318;2024-03-25T11:34:18;2.93;;;2.60;;
1336;SDS011;662;48.814;9.318;2024-03-25T11:36:44;4.13;;;2.43;;
1336;SDS011;662;48.814;9.318;2024-03-25T11:39:11;2.90;;;2.00;;
1336;SDS011;662;48.814;9.318;2024-03-25T11:41:40;4.80;;;2.10;;
1336;SDS011;662;48.814;9.318;2024-03-25T11:44:08;2.97;;;2.00;;
1336;SDS011;662;48.814;9.318;2024-03-25T11:46:36;2.50;;;1.93;;
1336;SDS011;662;48.814;9.318;2024-03-25T11:49:04;2.80;;;2.10;;
1336;SDS011;662;48.814;9.318;2024-03-25T11:51:37;2.50;;;2.13;;
1336;SDS011;662;48.814;9.318;2024-03-25T11:54:06;4.13;;;2.43;;
1336;SDS011;662;48.814;9.318;2024-03-25T11:56:36;2.70;;;2.10;;
1336;SDS011;662;48.814;9.318;2024-03-25T11:59:03;3.87;;;2.10;;
1336;SDS011;662;48.814;9.318;2024-03-25T12:01:29;5.47;;;2.10;;
1336;SDS011;662;48.814;9.318;2024-03-25T12:03:55;5.80;;;2.50;;
1336;SDS011;662;48.814;9.318;2024-03-25T12:06:20;2.03;;;1.93;;
1336;SDS011;662;48.814;9.318;2024-03-25T12:08:46;3.97;;;2.43;;
1336;SDS011;662;48.814;9.318;2024-03-25T12:11:30;2.70;;;2.20;;
1336;SDS011;662;48.814;9.318;2024-03-25T12:13:56;3.30;;;2.23;;
1336;SDS011;662;48.814;9.318;2024-03-25T12:16:23;6.60;;;2.30;;
1336;SDS011;662;48.814;9.318;2024-03-25T12:18:49;4.70;;;2.03;;
1336;SDS011;662;48.814;9.318;2024-03-25T12:21:15;3.33;;;1.90;;
1336;SDS011;662;48.814;9.318;2024-03-25T12:23:42;2.47;;;1.80;;
1336;SDS011;662;48.814;9.318;2024-03-25T12:26:08;3.90;;;2.13;;
1336;SDS011;662;48.814;9.318;2024-03-25T12:28:34;2.57;;;2.07;;
1336;SDS011;662;48.814;9.318;2024-03-25T12:31:06;3.30;;;2.27;;
1336;SDS011;662;48.814;9.318;2024-03-25T12:33:43;2.87;;;2.17;;
1336;SDS011;662;48.814;9.318;2024-03-25T12:36:12;2.80;;;2.03;;
1336;SDS011;662;48.814;9.318;2024-03-25T12:38:38;5.40;;;2.40;;
1336;SDS011;662;48.814;9.318;2024-03-25T12:41:07;2.77;;;2.07;;
1336;SDS011;662;48.814;9.318;2024-03-25T12:43:35;3.73;;;2.27;;
1336;SDS011;662;48.814;9.318;2024-03-25T12:48:54;2.83;;;1.80;;
1336;SDS011;662;48.814;9.318;2024-03-25T12:51:20;4.20;;;2.13;;
1336;SDS011;662;48.814;9.318;2024-03-25T12:53:46;2.40;;;1.73;;
1336;SDS011;662;48.814;9.318;2024-03-25T12:56:11;2.40;;;1.80;;
1336;SDS011;662;48.814;9.318;2024-03-25T12:58:37;3.27;;;2.60;;
1336;SDS011;662;48.814;9.318;2024-03-25T13:01:03;2.40;;;2.10;;
1336;SDS011;662;48.814;9.318;2024-03-25T13:03:29;3.50;;;1.80;;
1336;SDS011;662;48.814;9.318;2024-03-25T13:05:54;2.70;;;1.87;;
1336;SDS011;662;48.814;9.318;2024-03-25T13:08:22;2.47;;;1.90;;
1336;SDS011;662;48.814;9.318;2024-03-25T13:10:48;4.80;;;1.80;;
1336;SDS011;662;48.814;9.318;2024-03-25T13:13:14;1.90;;;1.70;;
1336;SDS011;662;48.814;9.318;2024-03-25T13:15:39;2.80;;;1.53;;
1336;SDS011;662;48.814;9.318;2024-03-25T13:18:05;2.30;;;2.00;;
1336;SDS011;662;48.814;9.318;2024-03-25T13:20:31;1.80;;;1.60;;
1336;SDS011;662;48.814;9.318;2024-03-25T13:22:57;2.17;;;1.87;;
1336;SDS011;662;48.814;9.318;2024-03-25T13:25:25;4.07;;;2.50;;
1336;SDS011;662;48.814;9.318;2024-03-25T13:27:52;3.07;;;1.80;;
1336;SDS011;662;48.814;9.318;2024-03-25T13:30:18;1.73;;;1.63;;
1336;SDS011;662;48.814;9.318;2024-03-25T13:32:43;3.00;;;1.57;;
1336;SDS011;662;48.814;9.318;2024-03-25T13:35:09;3.80;;;2.30;;
1336;SDS011;662;48.814;9.318;2024-03-25T13:37:34;2.40;;;1.80;;
1336;SDS011;662;48.814;9.318;2024-03-25T13:40:00;3.70;;;2.17;;
1336;SDS011;662;48.814;9.318;2024-03-25T13:42:25;1.70;;;1.60;;
1336;SDS011;662;48.814;9.318;2024-03-25T13:44:51;3.37;;;2.00;;
1336;SDS011;662;48.814;9.318;2024-03-25T13:47:17;5.93;;;1.87;;
1336;SDS011;662;48.814;9.318;2024-03-25T13:49:42;2.37;;;1.90;;
1336;SDS011;662;48.814;9.318;2024-03-25T13:52:08;3.10;;;1.90;;
1336;SDS011;662;48.814;9.318;2024-03-25T13:54:33;7.03;;;1.70;;
1336;SDS011;662;48.814;9.318;2024-03-25T13:56:59;4.20;;;1.87;;
1336;SDS011;662;48.814;9.318;2024-03-25T13:59:24;3.83;;;1.93;;
1336;SDS011;662;48.814;9.318;2024-03-25T14:01:51;2.17;;;1.83;;
1336;SDS011;662;48.814;9.318;2024-03-25T14:04:18;2.00;;;1.73;;
1336;SDS011;662;48.814;9.318;2024-03-25T14:06:45;4.70;;;1.80;;
1336;SDS011;662;48.814;9.318;2024-03-25T14:09:13;2.53;;;1.60;;
1336;SDS011;662;48.814;9.318;2024-03-25T14:11:51;2.30;;;1.77;;
1336;SDS011;662;48.814;9.318;2024-03-25T14:14:17;1.37;;;1.27;;
1336;SDS011;662;48.814;9.318;2024-03-25T14:16:42;2.10;;;1.90;;
1336;SDS011;662;48.814;9.318;2024-03-25T14:19:08;3.27;;;1.63;;
1336;SDS011;662;48.814;9.318;2024-03-25T14:21:34;2.23;;;1.60;;
1336;SDS011;662;48.814;9.318;2024-03-25T14:23:59;3.47;;;1.47;;
1336;SDS011;662;48.814;9.318;2024-03-25T14:26:25;2.00;;;1.70;;
1336;SDS011;662;48.814;9.318;2024-03-25T14:28:51;2.27;;;2.17;;
1336;SDS011;662;48.814;9.318;2024-03-25T14:31:16;3.00;;;2.70;;
1336;SDS011;662;48.814;9.318;2024-03-25T14:33:45;2.40;;;1.70;;
1336;SDS011;662;48.814;9.318;2024-03-25T14:36:10;1.30;;;1.20;;
1336;SDS011;662;48.814;9.318;2024-03-25T14:38:36;2.23;;;1.70;;
1336;SDS011;662;48.814;9.318;2024-03-25T14:41:04;3.13;;;1.60;;
1336;SDS011;662;48.814;9.318;2024-03-25T14:43:50;1.90;;;1.30;;
1336;SDS011;662;48.814;9.318;2024-03-25T14:46:15;2.73;;;1.63;;
1336;SDS011;662;48.814;9.318;2024-03-25T14:48:42;2.00;;;1.90;;
1336;SDS011;662;48.814;9.318;2024-03-25T14:51:07;2.43;;;1.67;;
1336;SDS011;662;48.814;9.318;2024-03-25T14:53:33;5.60;;;1.93;;
1336;SDS011;662;48.814;9.318;2024-03-25T14:55:59;2.47;;;2.30;;
1336;SDS011;662;48.814;9.318;2024-03-25T14:58:24;5.30;;;2.40;;
1336;SDS011;662;48.814;9.318;2024-03-25T15:00:51;2.97;;;2.10;;
1336;SDS011;662;48.814;9.318;2024-03-25T15:03:17;3.47;;;2.00;;
1336;SDS011;662;48.814;9.318;2024-03-25T15:05:42;1.70;;;1.60;;
1336;SDS011;662;48.814;9.318;2024-03-25T15:08:08;2.80;;;1.80;;
1336;SDS011;662;48.814;9.318;2024-03-25T15:10:36;5.30;;;2.50;;
1336;SDS011;662;48.814;9.318;2024-03-25T15:13:02;2.97;;;2.23;;
1336;SDS011;662;48.814;9.318;2024-03-25T15:15:28;4.83;;;2.00;;
1336;SDS011;662;48.814;9.318;2024-03-25T15:17:59;3.27;;;2.40;;
1336;SDS011;662;48.814;9.318;2024-03-25T15:20:25;2.50;;;1.93;;
1336;SDS011;662;48.814;9.318;2024-03-25T15:22:51;2.80;;;2.00;;
1336;SDS011;662;48.814;9.318;2024-03-25T15:25:16;2.57;;;1.73;;
1336;SDS011;662;48.814;9.318;2024-03-25T15:27:42;2.00;;;1.80;;
1336;SDS011;662;48.814;9.318;2024-03-25T15:30:08;3.07;;;1.80;;